Time;durP1;ratioP1;P1;durP2;ratioP2;P2;SDS_P1;SDS_P2;PMS_P1;PMS_P2;Temp;Humidity;BMP_temperature;BMP_pressure;BME280_temperature;BME280_humidity;BME280_pressure;Samples;Min_cycle;Max_cycle;Signal;HPM_P1;HPM_P2
2022/06/23 00:00:25;;;;;;;4.55;2.60;;;;;;;;;;1729827;83;21568;-79
2022/06/23 00:02:51;;;;;;;3.58;2.70;;;;;;;;;;1694900;84;21036;-79
2022/06/23 00:05:18;;;;;;;3.22;2.60;;;;;;;;;;1690380;83;21102;-79
2022/06/23 00:07:44;;;;;;;7.10;2.70;;;;;;;;;;1705713;84;21074;-79
2022/06/23 00:10:16;;;;;;;4.00;2.50;;;;;;;;;;1705578;83;21123;-79
2022/06/23 00:12:42;;;;;;;4.78;2.58;;;;;;;;;;1705801;83;20997;-79
2022/06/23 00:15:16;;;;;;;6.90;3.22;;;;;;;;;;1684300;84;21013;-79
2022/06/23 00:17:44;;;;;;;3.45;2.75;;;;;;;;;;1705022;83;21454;-79
2022/06/23 00:20:12;;;;;;;4.05;2.80;;;;;;;;;;1705681;84;21080;-79
2022/06/23 00:22:38;;;;;;;2.92;2.42;;;;;;;;;;1705750;83;21013;-80
2022/06/23 00:25:05;;;;;;;3.20;2.67;;;;;;;;;;1685584;84;21032;-81
2022/06/23 00:27:38;;;;;;;3.50;2.58;;;;;;;;;;1700543;83;21000;-79
2022/06/23 00:30:06;;;;;;;4.60;2.70;;;;;;;;;;1705856;84;21384;-80
2022/06/23 00:32:32;;;;;;;3.30;2.70;;;;;;;;;;1702862;84;21068;-80
2022/06/23 00:35:00;;;;;;;5.65;2.80;;;;;;;;;;1692218;84;22244;-80
2022/06/23 00:37:26;;;;;;;3.27;2.75;;;;;;;;;;1686864;83;21005;-79
2022/06/23 00:40:02;;;;;;;3.62;2.80;;;;;;;;;;1705700;83;21001;-80
2022/06/23 00:42:36;;;;;;;3.42;2.52;;;;;;;;;;1705736;84;22133;-80
2022/06/23 00:45:13;;;;;;;3.00;2.45;;;;;;;;;;1705714;84;21017;-79
2022/06/23 00:47:42;;;;;;;4.30;2.75;;;;;;;;;;1697580;83;21135;-79
2022/06/23 00:50:19;;;;;;;4.05;2.70;;;;;;;;;;1694569;84;21057;-80
2022/06/23 00:52:50;;;;;;;3.83;2.90;;;;;;;;;;1746115;82;21027;-80
2022/06/23 00:55:26;;;;;;;5.28;3.12;;;;;;;;;;1743753;82;21000;-80
2022/06/23 00:57:55;;;;;;;4.58;2.90;;;;;;;;;;1741408;81;21095;-80
2022/06/23 01:00:22;;;;;;;5.72;2.95;;;;;;;;;;1741708;82;21024;-80
2022/06/23 01:05:35;;;;;;;4.25;2.80;;;;;;;;;;1771251;80;21095;-85
2022/06/23 01:08:03;;;;;;;4.00;2.85;;;;;;;;;;1772143;80;21064;-85
2022/06/23 01:10:37;;;;;;;6.47;2.92;;;;;;;;;;1783202;80;21024;-86
2022/06/23 01:13:05;;;;;;;3.30;2.70;;;;;;;;;;1762988;80;21012;-85
2022/06/23 01:15:33;;;;;;;4.17;2.80;;;;;;;;;;1758252;80;21028;-85
2022/06/23 01:18:01;;;;;;;3.52;2.70;;;;;;;;;;1756688;80;21004;-86
2022/06/23 01:20:30;;;;;;;3.85;3.10;;;;;;;;;;1766650;80;21026;-83
2022/06/23 01:23:15;;;;;;;4.70;3.02;;;;;;;;;;1760488;80;20987;-82
2022/06/23 01:25:56;;;;;;;5.12;2.98;;;;;;;;;;1754809;80;20977;-81
2022/06/23 01:28:23;;;;;;;3.47;2.77;;;;;;;;;;1753888;81;21502;-80
2022/06/23 01:30:57;;;;;;;4.55;3.42;;;;;;;;;;1753932;82;21008;-81
2022/06/23 01:33:24;;;;;;;4.08;2.95;;;;;;;;;;1754730;80;20988;-81
2022/06/23 01:35:52;;;;;;;3.42;2.83;;;;;;;;;;1754471;80;21031;-81
2022/06/23 01:38:29;;;;;;;5.40;3.25;;;;;;;;;;1761911;80;20985;-80
2022/06/23 01:40:57;;;;;;;5.30;2.87;;;;;;;;;;1749787;82;21008;-83
2022/06/23 01:43:24;;;;;;;4.08;3.30;;;;;;;;;;1754545;80;21007;-83
2022/06/23 01:46:04;;;;;;;5.47;3.35;;;;;;;;;;1753238;80;21012;-82
2022/06/23 01:51:21;;;;;;;6.35;3.70;;;;;;;;;;1766851;80;20985;-83
2022/06/23 01:53:47;;;;;;;6.33;4.17;;;;;;;;;;1783649;80;21004;-82
2022/06/23 01:56:18;;;;;;;7.12;4.47;;;;;;;;;;1762999;80;20996;-73
2022/06/23 01:58:51;;;;;;;7.55;4.72;;;;;;;;;;1760501;80;21036;-74
2022/06/23 02:01:22;;;;;;;6.58;4.60;;;;;;;;;;1728271;80;21534;-74
2022/06/23 02:03:51;;;;;;;8.00;4.58;;;;;;;;;;1779538;80;20997;-73
2022/06/23 02:06:18;;;;;;;6.80;4.10;;;;;;;;;;1778999;80;21043;-74
2022/06/23 02:08:50;;;;;;;8.03;4.37;;;;;;;;;;1784109;80;21023;-73
2022/06/23 02:11:36;;;;;;;5.92;3.95;;;;;;;;;;1795633;80;21019;-74
2022/06/23 02:14:04;;;;;;;4.92;3.80;;;;;;;;;;1797985;79;21059;-73
2022/06/23 02:16:49;;;;;;;5.42;3.90;;;;;;;;;;1774140;80;20985;-73
2022/06/23 02:19:36;;;;;;;6.05;4.30;;;;;;;;;;1790047;80;21043;-73
2022/06/23 02:22:04;;;;;;;5.62;3.65;;;;;;;;;;1767951;80;20956;-73
2022/06/23 02:24:32;;;;;;;4.58;3.77;;;;;;;;;;1772556;80;21051;-74
2022/06/23 02:27:03;;;;;;;5.03;3.80;;;;;;;;;;1797929;80;20987;-73
2022/06/23 02:29:40;;;;;;;5.40;3.90;;;;;;;;;;1771738;80;21047;-74
2022/06/23 02:32:16;;;;;;;6.17;4.03;;;;;;;;;;1767102;80;21032;-74
2022/06/23 02:34:44;;;;;;;5.12;3.90;;;;;;;;;;1768868;80;21019;-74
2022/06/23 02:37:28;;;;;;;6.05;4.15;;;;;;;;;;1790445;80;21019;-74
2022/06/23 02:39:55;;;;;;;6.28;4.10;;;;;;;;;;1772264;80;20956;-74
2022/06/23 02:42:23;;;;;;;7.10;3.85;;;;;;;;;;1774045;80;21007;-73
2022/06/23 02:44:54;;;;;;;8.15;4.08;;;;;;;;;;1788563;79;20983;-73
2022/06/23 02:47:28;;;;;;;6.85;4.25;;;;;;;;;;1790938;80;21452;-73
2022/06/23 02:49:55;;;;;;;6.20;3.80;;;;;;;;;;1799095;79;21070;-74
2022/06/23 02:52:42;;;;;;;5.12;3.70;;;;;;;;;;1794080;79;21071;-74
2022/06/23 02:55:09;;;;;;;5.90;3.80;;;;;;;;;;1768797;80;21015;-74
2022/06/23 02:57:43;;;;;;;7.50;4.08;;;;;;;;;;1770052;80;21526;-74
2022/06/23 03:00:14;;;;;;;6.55;4.33;;;;;;;;;;1792626;80;20970;-74
2022/06/23 03:02:58;;;;;;;5.97;4.00;;;;;;;;;;1779376;80;21047;-74
2022/06/23 03:05:30;;;;;;;7.33;4.05;;;;;;;;;;1789440;80;21106;-75
2022/06/23 03:08:01;;;;;;;6.50;3.77;;;;;;;;;;1768060;80;21012;-75
2022/06/23 03:10:29;;;;;;;5.15;3.65;;;;;;;;;;1797036;80;21442;-75
2022/06/23 03:13:00;;;;;;;4.65;3.40;;;;;;;;;;1749935;81;21083;-75
2022/06/23 03:15:32;;;;;;;4.28;3.37;;;;;;;;;;1704465;83;21544;-74
2022/06/23 03:18:00;;;;;;;4.25;3.37;;;;;;;;;;1725007;81;21052;-73
2022/06/23 03:20:39;;;;;;;5.33;3.45;;;;;;;;;;1729538;82;21100;-73
2022/06/23 03:23:24;;;;;;;6.45;3.50;;;;;;;;;;1763418;80;21040;-74
2022/06/23 03:25:52;;;;;;;4.87;3.30;;;;;;;;;;1780781;80;21456;-73
2022/06/23 03:28:23;;;;;;;7.03;4.00;;;;;;;;;;1760225;80;21012;-73
2022/06/23 03:31:00;;;;;;;4.12;3.62;;;;;;;;;;1751582;80;21020;-73
2022/06/23 03:33:40;;;;;;;5.37;3.47;;;;;;;;;;1751390;82;21035;-73
2022/06/23 03:36:14;;;;;;;6.15;3.75;;;;;;;;;;1752288;80;20992;-73
2022/06/23 03:41:37;;;;;;;6.58;4.10;;;;;;;;;;1751553;82;21063;-73
2022/06/23 03:44:11;;;;;;;8.05;4.30;;;;;;;;;;1751523;82;21028;-73
2022/06/23 03:46:39;;;;;;;5.58;3.85;;;;;;;;;;1759091;80;21538;-73
2022/06/23 03:49:07;;;;;;;7.15;3.55;;;;;;;;;;1751597;80;21368;-73
2022/06/23 03:51:35;;;;;;;5.35;3.12;;;;;;;;;;1751837;80;21320;-73
2022/06/23 03:54:12;;;;;;;6.40;3.47;;;;;;;;;;1750528;82;21101;-73
2022/06/23 03:56:45;;;;;;;5.42;3.58;;;;;;;;;;1772143;80;22090;-73
2022/06/23 03:59:15;;;;;;;5.62;3.60;;;;;;;;;;1771571;80;21008;-73
2022/06/23 04:01:46;;;;;;;6.55;3.45;;;;;;;;;;1780981;80;20984;-73
2022/06/23 04:04:15;;;;;;;5.12;3.20;;;;;;;;;;1782137;80;21638;-74
2022/06/23 04:06:43;;;;;;;5.22;3.67;;;;;;;;;;1781115;80;21028;-75
2022/06/23 04:09:23;;;;;;;5.25;3.10;;;;;;;;;;1775051;80;21063;-74
2022/06/23 04:12:07;;;;;;;4.87;3.50;;;;;;;;;;1752100;80;21060;-74
2022/06/23 04:14:43;;;;;;;3.95;3.15;;;;;;;;;;1731236;83;21044;-74
2022/06/23 04:17:28;;;;;;;5.10;3.42;;;;;;;;;;1731412;81;21020;-74
2022/06/23 04:20:02;;;;;;;7.00;3.27;;;;;;;;;;1731982;81;21021;-74
2022/06/23 04:22:43;;;;;;;4.10;3.27;;;;;;;;;;1725818;83;21048;-73
2022/06/23 04:25:11;;;;;;;5.45;3.47;;;;;;;;;;1774210;80;22161;-74
2022/06/23 04:27:38;;;;;;;5.97;3.40;;;;;;;;;;1778905;80;21114;-73
2022/06/23 04:30:05;;;;;;;5.28;3.47;;;;;;;;;;1768557;80;21008;-73
2022/06/23 04:32:32;;;;;;;4.90;3.27;;;;;;;;;;1782596;80;21503;-73
2022/06/23 04:35:06;;;;;;;5.37;3.20;;;;;;;;;;1781683;80;21009;-73
2022/06/23 04:37:37;;;;;;;4.12;3.10;;;;;;;;;;1751575;82;20992;-74
2022/06/23 04:40:23;;;;;;;5.50;3.50;;;;;;;;;;1752188;80;21040;-74
2022/06/23 04:42:51;;;;;;;7.00;4.37;;;;;;;;;;1750783;82;21016;-73
2022/06/23 04:45:22;;;;;;;5.17;3.20;;;;;;;;;;1753117;80;21559;-73
2022/06/23 04:47:50;;;;;;;5.47;3.58;;;;;;;;;;1777812;80;21020;-74
2022/06/23 04:50:18;;;;;;;4.60;3.50;;;;;;;;;;1771062;80;21008;-74
2022/06/23 04:52:46;;;;;;;4.42;3.47;;;;;;;;;;1762181;80;21551;-75
2022/06/23 04:55:13;;;;;;;4.05;3.25;;;;;;;;;;1769974;80;21480;-75
2022/06/23 04:57:50;;;;;;;5.05;3.27;;;;;;;;;;1761382;80;21582;-75
2022/06/23 05:00:21;;;;;;;4.35;3.30;;;;;;;;;;1763989;80;20991;-75
2022/06/23 05:02:48;;;;;;;5.53;4.05;;;;;;;;;;1765559;80;21099;-76
2022/06/23 05:05:15;;;;;;;4.62;3.45;;;;;;;;;;1751479;82;21433;-76
2022/06/23 05:07:49;;;;;;;5.42;3.47;;;;;;;;;;1758463;80;21511;-74
2022/06/23 05:10:18;;;;;;;5.05;3.15;;;;;;;;;;1782056;80;21020;-73
2022/06/23 05:12:53;;;;;;;4.08;3.20;;;;;;;;;;1779855;80;21068;-74
2022/06/23 05:15:36;;;;;;;6.75;3.98;;;;;;;;;;1777679;80;21048;-75
2022/06/23 05:18:11;;;;;;;6.00;3.70;;;;;;;;;;1753583;80;21063;-75
2022/06/23 05:20:52;;;;;;;5.25;3.67;;;;;;;;;;1771734;80;20994;-75
2022/06/23 05:23:23;;;;;;;4.87;3.90;;;;;;;;;;1767467;80;21004;-75
2022/06/23 05:25:50;;;;;;;4.78;3.65;;;;;;;;;;1774867;80;21004;-74
2022/06/23 05:28:17;;;;;;;9.23;3.75;;;;;;;;;;1753669;80;21053;-75
2022/06/23 05:30:48;;;;;;;5.70;3.50;;;;;;;;;;1774425;80;21032;-74
2022/06/23 05:33:18;;;;;;;6.12;3.55;;;;;;;;;;1767621;80;20941;-76
2022/06/23 05:35:46;;;;;;;7.12;3.60;;;;;;;;;;1763758;80;20963;-74
2022/06/23 05:38:14;;;;;;;10.38;3.67;;;;;;;;;;1772428;80;20988;-72
2022/06/23 05:40:43;;;;;;;4.75;3.08;;;;;;;;;;1769589;80;20992;-72
2022/06/23 05:43:09;;;;;;;6.42;3.42;;;;;;;;;;1772742;80;20937;-70
2022/06/23 05:45:38;;;;;;;4.85;3.20;;;;;;;;;;1779208;80;21052;-70
2022/06/23 05:48:07;;;;;;;5.30;3.87;;;;;;;;;;1780680;80;21012;-69
2022/06/23 05:50:36;;;;;;;5.58;4.00;;;;;;;;;;1781360;80;20992;-70
2022/06/23 05:53:05;;;;;;;4.87;3.58;;;;;;;;;;1782539;80;21033;-70
2022/06/23 05:55:34;;;;;;;5.03;3.47;;;;;;;;;;1771919;80;21044;-70
2022/06/23 05:58:02;;;;;;;4.65;3.60;;;;;;;;;;1749832;82;21039;-71
2022/06/23 06:00:30;;;;;;;4.67;3.40;;;;;;;;;;1752478;80;21052;-71
2022/06/23 06:03:11;;;;;;;7.22;3.85;;;;;;;;;;1766372;80;21039;-71
2022/06/23 06:05:38;;;;;;;5.87;3.42;;;;;;;;;;1751418;82;21602;-71
2022/06/23 06:08:06;;;;;;;6.40;3.37;;;;;;;;;;1753633;81;21020;-71
2022/06/23 06:10:32;;;;;;;5.08;3.55;;;;;;;;;;1750888;81;21068;-71
2022/06/23 06:12:59;;;;;;;6.10;3.70;;;;;;;;;;1747833;82;20993;-69
2022/06/23 06:15:29;;;;;;;5.28;3.80;;;;;;;;;;1748684;82;21001;-70
2022/06/23 06:18:14;;;;;;;5.53;3.83;;;;;;;;;;1748569;82;21500;-69
2022/06/23 06:20:40;;;;;;;8.93;4.03;;;;;;;;;;1761040;81;21060;-70
2022/06/23 06:23:14;;;;;;;4.75;3.55;;;;;;;;;;1779271;81;21012;-70
2022/06/23 06:25:41;;;;;;;6.03;4.03;;;;;;;;;;1775819;81;21523;-70
2022/06/23 06:28:17;;;;;;;4.78;3.15;;;;;;;;;;1749663;81;22127;-70
2022/06/23 06:30:48;;;;;;;8.20;3.25;;;;;;;;;;1767502;81;21064;-69
2022/06/23 06:33:15;;;;;;;9.50;7.22;;;;;;;;;;1761077;81;21531;-69
2022/06/23 06:35:42;;;;;;;12.13;9.95;;;;;;;;;;1774836;81;21071;-69
2022/06/23 06:38:09;;;;;;;7.03;5.22;;;;;;;;;;1759825;81;21013;-70
2022/06/23 06:40:35;;;;;;;6.33;3.98;;;;;;;;;;1750539;81;20985;-72
2022/06/23 06:43:07;;;;;;;6.33;3.60;;;;;;;;;;1740341;81;21615;-72
2022/06/23 06:45:33;;;;;;;5.55;3.83;;;;;;;;;;1778824;80;21523;-71
2022/06/23 06:48:00;;;;;;;4.78;3.45;;;;;;;;;;1779019;81;21012;-71
2022/06/23 06:50:37;;;;;;;6.25;3.67;;;;;;;;;;1776156;81;21090;-71
2022/06/23 06:53:05;;;;;;;10.90;3.92;;;;;;;;;;1758928;81;21614;-71
2022/06/23 06:55:35;;;;;;;4.58;3.30;;;;;;;;;;1761882;81;21044;-71
2022/06/23 06:58:02;;;;;;;6.45;3.85;;;;;;;;;;1748684;82;21004;-70
2022/06/23 07:00:32;;;;;;;4.65;3.70;;;;;;;;;;1748420;82;21064;-70
2022/06/23 07:03:00;;;;;;;6.47;3.75;;;;;;;;;;1748775;80;21060;-70
2022/06/23 07:05:31;;;;;;;4.45;3.27;;;;;;;;;;1748600;82;21032;-69
2022/06/23 07:07:59;;;;;;;4.83;3.42;;;;;;;;;;1746166;81;21060;-69
2022/06/23 07:10:30;;;;;;;6.83;3.45;;;;;;;;;;1777016;80;21033;-69
2022/06/23 07:12:56;;;;;;;4.22;3.55;;;;;;;;;;1777791;81;21024;-71
2022/06/23 07:15:31;;;;;;;4.20;3.52;;;;;;;;;;1766847;81;21040;-70
2022/06/23 07:18:08;;;;;;;4.62;3.40;;;;;;;;;;1748496;82;21091;-70
2022/06/23 07:20:36;;;;;;;6.33;3.65;;;;;;;;;;1747956;82;21025;-70
2022/06/23 07:23:03;;;;;;;7.80;4.00;;;;;;;;;;1766457;81;20981;-72
2022/06/23 07:25:32;;;;;;;6.58;4.00;;;;;;;;;;1747329;82;21020;-72
2022/06/23 07:28:09;;;;;;;7.10;3.42;;;;;;;;;;1747856;82;21550;-72
2022/06/23 07:30:37;;;;;;;7.45;3.77;;;;;;;;;;1750832;82;21043;-72
2022/06/23 07:33:08;;;;;;;6.08;3.50;;;;;;;;;;1720611;83;21121;-71
2022/06/23 07:35:48;;;;;;;5.03;3.52;;;;;;;;;;1753824;82;21003;-72
2022/06/23 07:38:16;;;;;;;5.58;3.62;;;;;;;;;;1753977;82;21638;-70
2022/06/23 07:40:53;;;;;;;3.72;3.42;;;;;;;;;;1753833;82;21016;-71
2022/06/23 07:43:21;;;;;;;5.55;3.35;;;;;;;;;;1763587;80;21527;-71
2022/06/23 07:45:55;;;;;;;4.35;3.45;;;;;;;;;;1784231;80;20989;-71
2022/06/23 07:48:21;;;;;;;4.17;3.42;;;;;;;;;;1782808;80;20965;-71
2022/06/23 07:50:48;;;;;;;5.20;4.08;;;;;;;;;;1778315;80;21541;-71
2022/06/23 07:53:16;;;;;;;6.17;3.80;;;;;;;;;;1777974;80;21027;-72
2022/06/23 07:55:42;;;;;;;8.43;3.98;;;;;;;;;;1771218;80;21075;-71
2022/06/23 07:58:09;;;;;;;5.33;4.10;;;;;;;;;;1762718;80;21079;-71
2022/06/23 08:00:35;;;;;;;5.05;3.30;;;;;;;;;;1764124;80;20976;-72
2022/06/23 08:03:07;;;;;;;5.10;4.12;;;;;;;;;;1753626;82;21079;-71
2022/06/23 08:05:39;;;;;;;4.10;3.40;;;;;;;;;;1753733;81;21032;-71
2022/06/23 08:08:06;;;;;;;5.60;3.80;;;;;;;;;;1759915;80;21064;-72
2022/06/23 08:10:32;;;;;;;5.47;3.60;;;;;;;;;;1770165;80;21575;-72
2022/06/23 08:13:03;;;;;;;5.55;4.08;;;;;;;;;;1767386;80;21014;-71
2022/06/23 08:18:24;;;;;;;8.53;3.75;;;;;;;;;;1763753;80;20989;-71
2022/06/23 08:20:50;;;;;;;5.85;4.25;;;;;;;;;;1784608;80;21504;-70
2022/06/23 08:23:16;;;;;;;6.08;3.60;;;;;;;;;;1761007;80;21071;-70
2022/06/23 08:25:43;;;;;;;6.72;3.60;;;;;;;;;;1780182;80;20976;-70
2022/06/23 08:28:09;;;;;;;6.00;3.85;;;;;;;;;;1759691;80;20929;-69
2022/06/23 08:30:38;;;;;;;5.35;3.50;;;;;;;;;;1755742;80;21081;-70
2022/06/23 08:33:02;;;;;;;4.58;3.40;;;;;;;;;;1765058;80;20985;-71
2022/06/23 08:35:40;;;;;;;8.93;3.87;;;;;;;;;;1765468;80;21016;-70
2022/06/23 08:38:07;;;;;;;5.12;3.40;;;;;;;;;;1782096;80;21176;-70
2022/06/23 08:40:36;;;;;;;6.42;4.87;;;;;;;;;;1769183;80;21559;-70
2022/06/23 08:43:06;;;;;;;9.78;5.85;;;;;;;;;;1768372;80;21024;-69
2022/06/23 08:45:35;;;;;;;5.90;4.65;;;;;;;;;;1779170;80;21009;-69
2022/06/23 08:48:02;;;;;;;7.03;3.70;;;;;;;;;;1776036;80;21039;-70
2022/06/23 08:50:36;;;;;;;5.42;3.67;;;;;;;;;;1753709;82;21067;-71
2022/06/23 08:53:07;;;;;;;4.30;3.60;;;;;;;;;;1754107;82;21475;-71
2022/06/23 08:55:35;;;;;;;6.70;3.30;;;;;;;;;;1757153;80;21503;-70
2022/06/23 08:58:12;;;;;;;3.98;3.22;;;;;;;;;;1765021;80;20999;-70
2022/06/23 09:00:40;;;;;;;5.10;3.67;;;;;;;;;;1766753;80;21039;-70
2022/06/23 09:03:11;;;;;;;4.62;3.37;;;;;;;;;;1784884;79;21060;-71
2022/06/23 09:05:38;;;;;;;6.33;3.27;;;;;;;;;;1784882;80;21172;-69
2022/06/23 09:08:12;;;;;;;4.87;3.77;;;;;;;;;;1773216;80;21520;-69
2022/06/23 09:10:52;;;;;;;6.83;3.80;;;;;;;;;;1783812;80;21515;-70
2022/06/23 09:13:20;;;;;;;3.83;3.42;;;;;;;;;;1740255;80;21016;-70
2022/06/23 09:15:49;;;;;;;4.83;3.77;;;;;;;;;;1776634;80;21056;-70
2022/06/23 09:18:17;;;;;;;5.70;3.30;;;;;;;;;;1766797;80;20985;-70
2022/06/23 09:20:57;;;;;;;3.70;3.30;;;;;;;;;;1780861;80;21071;-70
2022/06/23 09:23:37;;;;;;;4.35;3.42;;;;;;;;;;1784263;80;21064;-70
2022/06/23 09:26:08;;;;;;;4.83;3.40;;;;;;;;;;1784883;80;21020;-69
2022/06/23 09:28:37;;;;;;;3.92;3.05;;;;;;;;;;1757178;80;21032;-70
2022/06/23 09:31:21;;;;;;;7.75;3.42;;;;;;;;;;1763800;80;20985;-70
2022/06/23 09:33:52;;;;;;;4.95;3.70;;;;;;;;;;1784741;80;21499;-70
2022/06/23 09:36:37;;;;;;;4.83;3.22;;;;;;;;;;1784937;80;21032;-69
2022/06/23 09:39:11;;;;;;;6.90;3.40;;;;;;;;;;1759866;80;21016;-70
2022/06/23 09:41:56;;;;;;;5.97;3.42;;;;;;;;;;1761840;80;20991;-69
2022/06/23 09:44:31;;;;;;;4.45;3.15;;;;;;;;;;1787704;80;21085;-70
2022/06/23 09:47:17;;;;;;;4.05;3.45;;;;;;;;;;1787807;80;21015;-70
2022/06/23 09:49:50;;;;;;;3.52;2.85;;;;;;;;;;1739920;82;21621;-70
2022/06/23 09:52:23;;;;;;;4.17;3.10;;;;;;;;;;1718543;83;21037;-71
2022/06/23 09:54:54;;;;;;;5.03;3.15;;;;;;;;;;1723445;81;22170;-71
2022/06/23 09:57:24;;;;;;;5.53;3.30;;;;;;;;;;1770734;80;21050;-71
2022/06/23 10:00:01;;;;;;;3.83;3.17;;;;;;;;;;1757650;80;21056;-71
2022/06/23 10:02:32;;;;;;;5.75;3.00;;;;;;;;;;1753705;82;21607;-71
2022/06/23 10:05:18;;;;;;;4.85;3.30;;;;;;;;;;1753856;82;21017;-70
2022/06/23 10:08:01;;;;;;;3.72;3.00;;;;;;;;;;1764489;80;21053;-70
2022/06/23 10:10:30;;;;;;;5.67;3.50;;;;;;;;;;1770822;80;21535;-71
2022/06/23 10:13:04;;;;;;;4.10;2.90;;;;;;;;;;1755214;80;21059;-70
2022/06/23 10:15:35;;;;;;;3.75;3.10;;;;;;;;;;1777246;80;21028;-70
2022/06/23 10:18:20;;;;;;;4.90;3.17;;;;;;;;;;1778571;80;21087;-70
2022/06/23 10:20:47;;;;;;;5.87;3.10;;;;;;;;;;1743471;82;21977;-69
2022/06/23 10:23:18;;;;;;;4.35;2.92;;;;;;;;;;1754055;82;21071;-70
2022/06/23 10:25:49;;;;;;;3.90;2.98;;;;;;;;;;1754020;82;21077;-70
2022/06/23 10:28:34;;;;;;;5.30;2.77;;;;;;;;;;1773667;80;21032;-70
2022/06/23 10:31:02;;;;;;;3.75;2.80;;;;;;;;;;1753753;82;21051;-70
2022/06/23 10:33:36;;;;;;;3.27;2.70;;;;;;;;;;1753722;81;21547;-70
2022/06/23 10:36:16;;;;;;;3.25;2.95;;;;;;;;;;1753877;82;21535;-70
2022/06/23 10:38:50;;;;;;;3.65;2.70;;;;;;;;;;1779205;80;21000;-70
2022/06/23 10:41:18;;;;;;;4.97;2.70;;;;;;;;;;1783583;80;21546;-70
2022/06/23 10:43:45;;;;;;;4.15;2.75;;;;;;;;;;1784957;80;21016;-70
2022/06/23 10:46:13;;;;;;;4.10;3.00;;;;;;;;;;1784733;80;21036;-70
2022/06/23 10:48:47;;;;;;;3.85;2.70;;;;;;;;;;1747377;82;21056;-70
2022/06/23 10:51:15;;;;;;;5.47;2.67;;;;;;;;;;1691876;82;21099;-70
2022/06/23 10:53:45;;;;;;;4.70;2.77;;;;;;;;;;1718066;83;21028;-70
2022/06/23 10:56:13;;;;;;;3.58;2.85;;;;;;;;;;1717714;82;21456;-70
2022/06/23 10:58:53;;;;;;;5.28;2.77;;;;;;;;;;1733422;82;21041;-70
2022/06/23 11:01:21;;;;;;;3.37;2.77;;;;;;;;;;1747425;81;21088;-70
2022/06/23 11:03:52;;;;;;;4.20;2.60;;;;;;;;;;1734582;83;21560;-70
2022/06/23 11:06:23;;;;;;;5.37;2.62;;;;;;;;;;1734148;83;21060;-70
2022/06/23 11:08:57;;;;;;;5.62;2.80;;;;;;;;;;1732343;82;21119;-70
2022/06/23 11:11:25;;;;;;;3.10;2.70;;;;;;;;;;1731994;83;21001;-70
2022/06/23 11:14:02;;;;;;;5.28;2.70;;;;;;;;;;1734304;83;21029;-69
2022/06/23 11:16:33;;;;;;;3.95;2.83;;;;;;;;;;1709420;83;21024;-69
2022/06/23 11:19:07;;;;;;;5.80;2.85;;;;;;;;;;1717452;83;21111;-69
2022/06/23 11:21:51;;;;;;;3.20;2.70;;;;;;;;;;1753848;82;21091;-70
2022/06/23 11:24:21;;;;;;;4.95;2.90;;;;;;;;;;1753985;82;21496;-69
2022/06/23 11:26:49;;;;;;;3.40;2.75;;;;;;;;;;1767758;80;20961;-70
2022/06/23 11:29:23;;;;;;;7.45;3.22;;;;;;;;;;1755796;80;21079;-70
2022/06/23 11:32:08;;;;;;;6.15;3.37;;;;;;;;;;1758682;80;21027;-71
2022/06/23 11:34:35;;;;;;;4.17;2.80;;;;;;;;;;1759985;80;21534;-71
2022/06/23 11:37:12;;;;;;;3.87;2.75;;;;;;;;;;1778702;80;21056;-71
2022/06/23 11:39:40;;;;;;;4.85;3.00;;;;;;;;;;1768307;80;21007;-71
2022/06/23 11:42:08;;;;;;;3.50;3.00;;;;;;;;;;1767389;80;21001;-71
2022/06/23 11:44:48;;;;;;;4.22;2.77;;;;;;;;;;1761873;80;20988;-71
2022/06/23 11:47:28;;;;;;;5.20;3.20;;;;;;;;;;1768755;80;21020;-71
2022/06/23 11:49:59;;;;;;;4.80;3.17;;;;;;;;;;1759824;80;20980;-71
2022/06/23 11:52:27;;;;;;;3.85;2.95;;;;;;;;;;1767162;80;21543;-71
2022/06/23 11:55:00;;;;;;;4.47;3.27;;;;;;;;;;1778180;80;21013;-71
2022/06/23 11:57:31;;;;;;;5.40;2.80;;;;;;;;;;1784826;80;21028;-71
2022/06/23 11:59:59;;;;;;;3.87;2.85;;;;;;;;;;1779908;80;21039;-71
2022/06/23 12:02:25;;;;;;;9.08;2.70;;;;;;;;;;1753922;80;21008;-71
2022/06/23 12:07:53;;;;;;;4.75;3.20;;;;;;;;;;1801016;79;23260;-71
2022/06/23 12:10:20;;;;;;;;;;;;;;;;;;1763266;80;21084;-71
2022/06/23 12:12:47;;;;;;;3.80;2.87;;;;;;;;;;1761707;81;20105;-71
2022/06/23 12:15:15;;;;;;;7.47;3.10;;;;;;;;;;1761720;81;21539;-71
2022/06/23 12:17:43;;;;;;;3.98;3.05;;;;;;;;;;1761829;81;21029;-71
2022/06/23 12:20:21;;;;;;;3.87;2.80;;;;;;;;;;1759512;80;21036;-71
2022/06/23 12:22:54;;;;;;;3.35;2.62;;;;;;;;;;1756065;81;21015;-71
2022/06/23 12:25:34;;;;;;;3.90;3.20;;;;;;;;;;1755588;82;21084;-70
2022/06/23 12:28:02;;;;;;;5.30;3.00;;;;;;;;;;1755650;82;21477;-70
2022/06/23 12:30:29;;;;;;;4.60;3.05;;;;;;;;;;1755803;80;21032;-70
2022/06/23 12:33:15;;;;;;;5.78;3.02;;;;;;;;;;1731477;83;21025;-70
2022/06/23 12:35:43;;;;;;;3.45;2.62;;;;;;;;;;1731425;82;22206;-70
2022/06/23 12:38:20;;;;;;;4.50;3.00;;;;;;;;;;1739006;80;21021;-70
2022/06/23 12:40:51;;;;;;;7.25;3.08;;;;;;;;;;1760498;81;21072;-70
2022/06/23 12:43:19;;;;;;;3.90;2.90;;;;;;;;;;1761731;81;21096;-70
2022/06/23 12:45:50;;;;;;;3.50;2.95;;;;;;;;;;1761863;81;21017;-71
2022/06/23 12:48:18;;;;;;;4.62;3.10;;;;;;;;;;1760157;80;21028;-71
2022/06/23 12:51:03;;;;;;;4.75;2.60;;;;;;;;;;1759906;81;21009;-71
2022/06/23 12:53:34;;;;;;;3.22;2.55;;;;;;;;;;1759507;80;21082;-73
2022/06/23 12:56:10;;;;;;;3.35;2.92;;;;;;;;;;1761569;80;21614;-72
2022/06/23 12:58:39;;;;;;;4.25;3.00;;;;;;;;;;1752264;80;21060;-73
2022/06/23 13:01:10;;;;;;;3.80;2.98;;;;;;;;;;1763657;80;21016;-70
2022/06/23 13:03:50;;;;;;;4.87;2.70;;;;;;;;;;1702066;83;21090;-69
2022/06/23 13:06:19;;;;;;;4.67;2.77;;;;;;;;;;1704184;83;21552;-68
2022/06/23 13:08:57;;;;;;;4.28;2.90;;;;;;;;;;1718636;82;21029;-69
2022/06/23 13:11:24;;;;;;;4.55;3.00;;;;;;;;;;1717561;83;21002;-68
2022/06/23 13:13:55;;;;;;;3.25;2.90;;;;;;;;;;1714269;82;21029;-69
2022/06/23 13:16:23;;;;;;;4.85;2.90;;;;;;;;;;1710775;82;21053;-72
2022/06/23 13:18:54;;;;;;;2.85;2.55;;;;;;;;;;1720220;82;20949;-72
2022/06/23 13:21:26;;;;;;;3.20;2.80;;;;;;;;;;1717863;82;21075;-70
2022/06/23 13:23:53;;;;;;;3.98;2.83;;;;;;;;;;1727123;82;21052;-72
2022/06/23 13:26:21;;;;;;;5.70;3.10;;;;;;;;;;1717588;82;21386;-70
2022/06/23 13:28:48;;;;;;;4.85;3.10;;;;;;;;;;1717762;82;21008;-72
2022/06/23 13:31:22;;;;;;;3.20;2.77;;;;;;;;;;1695243;82;21017;-72
2022/06/23 13:33:50;;;;;;;4.53;3.10;;;;;;;;;;1717965;82;20986;-71
2022/06/23 13:36:20;;;;;;;3.65;2.77;;;;;;;;;;1715052;82;21021;-73
2022/06/23 13:38:54;;;;;;;5.12;3.08;;;;;;;;;;1710626;84;21041;-73
2022/06/23 13:41:25;;;;;;;5.10;3.00;;;;;;;;;;1707355;82;21052;-71
2022/06/23 13:43:52;;;;;;;8.65;3.12;;;;;;;;;;1715697;82;21361;-72
2022/06/23 13:46:26;;;;;;;5.75;3.00;;;;;;;;;;1710293;82;21017;-72
2022/06/23 13:48:57;;;;;;;4.25;3.10;;;;;;;;;;1716055;83;21027;-72
2022/06/23 13:51:34;;;;;;;4.87;3.00;;;;;;;;;;1716000;82;21576;-73
2022/06/23 13:54:20;;;;;;;3.70;2.67;;;;;;;;;;1710297;82;21112;-71
2022/06/23 13:56:48;;;;;;;4.50;2.50;;;;;;;;;;1710018;82;21084;-72
2022/06/23 13:59:32;;;;;;;5.50;2.67;;;;;;;;;;1714808;82;21086;-72
2022/06/23 14:02:03;;;;;;;4.72;3.10;;;;;;;;;;1721595;82;21092;-68
2022/06/23 14:04:32;;;;;;;4.25;2.75;;;;;;;;;;1713068;82;21647;-74
2022/06/23 14:07:07;;;;;;;5.00;2.90;;;;;;;;;;1714254;82;21052;-72
2022/06/23 14:09:52;;;;;;;4.10;2.77;;;;;;;;;;1720531;82;21016;-75
2022/06/23 14:12:23;;;;;;;5.78;2.75;;;;;;;;;;1728561;82;21113;-74
2022/06/23 14:14:55;;;;;;;6.05;3.92;;;;;;;;;;1720376;82;21461;-74
2022/06/23 14:17:35;;;;;;;7.92;2.85;;;;;;;;;;1714100;82;22248;-76
2022/06/23 14:20:10;;;;;;;6.30;2.80;;;;;;;;;;1719689;82;22151;-72
2022/06/23 14:22:40;;;;;;;5.92;2.70;;;;;;;;;;1713658;82;21516;-73
2022/06/23 14:25:12;;;;;;;3.70;2.72;;;;;;;;;;1728786;82;21482;-73
2022/06/23 14:27:49;;;;;;;3.90;2.92;;;;;;;;;;1731169;82;21073;-74
2022/06/23 14:30:18;;;;;;;4.15;3.15;;;;;;;;;;1728315;82;21056;-70
2022/06/23 14:32:47;;;;;;;4.08;2.98;;;;;;;;;;1718951;82;21038;-70
2022/06/23 14:35:15;;;;;;;3.80;3.00;;;;;;;;;;1713598;83;21064;-69
2022/06/23 14:37:43;;;;;;;14.05;12.68;;;;;;;;;;1692128;83;21068;-71
2022/06/23 14:40:10;;;;;;;68.90;61.58;;;;;;;;;;1716748;82;21009;-70
2022/06/23 14:42:39;;;;;;;14.30;12.15;;;;;;;;;;1717266;83;21028;-71
2022/06/23 14:45:10;;;;;;;7.78;4.95;;;;;;;;;;1720743;82;21050;-71
2022/06/23 14:47:41;;;;;;;4.53;3.20;;;;;;;;;;1717803;82;21099;-73
2022/06/23 14:50:26;;;;;;;4.00;3.17;;;;;;;;;;1719631;82;21017;-73
2022/06/23 14:52:57;;;;;;;5.00;3.20;;;;;;;;;;1722773;82;21025;-73
2022/06/23 14:55:25;;;;;;;4.60;2.62;;;;;;;;;;1719293;82;21072;-73
2022/06/23 14:58:11;;;;;;;5.53;3.50;;;;;;;;;;1721381;82;22010;-72
2022/06/23 15:00:39;;;;;;;4.45;3.05;;;;;;;;;;1732738;81;21509;-72
2022/06/23 15:03:07;;;;;;;4.58;3.20;;;;;;;;;;1740932;82;21053;-70
2022/06/23 15:05:38;;;;;;;6.37;3.08;;;;;;;;;;1726767;82;21092;-73
2022/06/23 15:08:06;;;;;;;3.15;2.70;;;;;;;;;;1720922;82;21080;-72
2022/06/23 15:10:41;;;;;;;4.75;2.80;;;;;;;;;;1720870;82;21065;-72
2022/06/23 15:13:22;;;;;;;3.90;3.50;;;;;;;;;;1719523;82;21020;-73
2022/06/23 15:15:56;;;;;;;3.40;2.90;;;;;;;;;;1730818;81;21074;-71
2022/06/23 15:18:34;;;;;;;4.60;2.90;;;;;;;;;;1718175;83;21085;-71
2022/06/23 15:21:02;;;;;;;7.65;3.37;;;;;;;;;;1716525;82;21228;-76
2022/06/23 15:23:30;;;;;;;5.10;4.00;;;;;;;;;;1724300;82;21017;-73